Redgranite, Wisconsin
Current Conditions -  °F | °C
As of 7:56 PM on Sunday 21 Dec 2014 (Local Time) from KY50 Reporting Station
Overcast Overcast  
Wind Chill: 28°   Ceiling: 1200
Heat Index: 36°   Visibility: 7mi
Dew Point: 33°   Wind: 13mph
Humidity: 89%   Direction: 170°S
Pressure: 29.95"   Gusts: NA
Location:  44.04°N, 89.1°W
Report Text: KY50 220156Z AUTO 17011KT 7SM OVC012 02/01 A2995 RMK AO2 TSNO T00220005 SLP147
Loading
Personal Weather Stations






























Interactive Weather Map New forecast layout! Learn more

10-Day Weather Forecast

Advertisements
Track Severe Weather on mobile